Newcomb, NM

8:46 AM MDT on September 21, 2014 (GMT -0600)
Four Corners Regional | Change Station
CLOSE
Current Station
Airport
Location: Farmington,
Elevation: 5502 ft
Nearby Weather Stations

Elev 5502 ft 36.74 °N, 108.23 °W | Updated 53 minutes ago

Clear
Clear
63 °F
Feels Like 63 °F
N
8
Wind Variable Wind from East

Today
High -- | Low -- °F
--% Chance of Precip.
Yesterday
High -- | Low -- °F
Precip. -- in
7:02 AM 7:13 PM
Waning Crescent, 6% visible
Pressure 30.12 in
Visibility 10.0 miles
Clouds Few 4600 ft
Dew Point 53 °F
Humidity 70%
Rainfall 0.00 in
Snow Depth 0 in , 0 in , 3 in
UV 0 out of 12
Pollen 6.30 out of 12
Air Quality Not available.
Flu Activity Not available.
METAR KFMN 211353Z 10007KT 10SM FEW046 17/12 A3029 RMK AO2 SLP200 T01720117

More Conditions Fewer Conditions

Pressure 30.12 in
Visibility 10.0 miles
Clouds Few 4600 ft
Dew Point 53 °F
Humidity 70%
Rainfall 0.00 in
Snow Depth 0 in , 0 in , 3 in
UV 0 out of 12
Pollen 6.30 out of 12
Air Quality Not available.
Flu Activity Not available.
METAR KFMN 211353Z 10007KT 10SM FEW046 17/12 A3029 RMK AO2 SLP200 T01720117

More Conditions Fewer Conditions

10-Day Weather Forecast

Almanac

Astronomy

Sep. 21, 2014 Rise Set
Actual Time 7:02 AM MDT 7:13 PM MDT
Civil Twilight 6:36 AM MDT 7:38 PM MDT
Nautical Twilight 6:06 AM MDT 8:08 PM MDT
Astronomical Twilight 5:35 AM MDT 8:39 PM MDT
Moon 4:41 AM MDT 5:48 PM MDT
Length of Visible Light 13h 02m
Length of Day
12h 11m
Tomorrow will be 2m 18s shorter.
Waning Crescent, 6% of the Moon is Illuminated
Today
Waning Crescent
Sep 24
New
Oct 1
First Quarter
Oct 8
Full
Oct 15
Last Quarter

Today's Extremes

State Highs State Lows

Community

WunderPhotos

Upload Photos

1,755,167 photos uploaded!

Nearby

Snow Depth

Station Depth Elevation
Gallegos Peak 0 in 9800 ft
Frisco Divide 0 in 8000 ft
Wesner Springs 3 in 11120 ft
Tolby 1 in 10180 ft
Quemazon 0 in 9500 ft

Earthquake Activity

City Distance Mag. Time & Date
No recent earthquake activity has been reported nearby.
Minimum magnitude displayed is 2.5.

Coastal Water Temperatures

Place Temperature
No Stations Reporting

Nearby Weather Stations